Time;durP1;ratioP1;P1;durP2;ratioP2;P2;SDS_P1;SDS_P2;PMS_P1;PMS_P2;Temp;Humidity;BMP_temperature;BMP_pressure;BME280_temperature;BME280_humidity;BME280_pressure;Samples;Min_cycle;Max_cycle;Signal;HPM_P1;HPM_P2
2021/05/30 00:00:09;;;;;;;5.10;3.20;;;;;;;9.41;65.48;101615.53;4899579;28;98582;-63
2021/05/30 00:02:36;;;;;;;4.00;2.85;;;;;;;9.35;66.79;101619.16;4881000;28;99583;-63
2021/05/30 00:05:03;;;;;;;4.38;3.08;;;;;;;9.26;66.10;101617.84;4903078;28;98098;-59
2021/05/30 00:07:29;;;;;;;4.55;2.90;;;;;;;9.39;65.19;101617.63;4902062;28;111195;-59
2021/05/30 00:09:55;;;;;;;6.50;2.65;;;;;;;9.25;65.03;101618.91;4916896;28;125966;-63
2021/05/30 00:12:22;;;;;;;4.07;2.60;;;;;;;9.35;65.32;101619.16;4921613;28;126468;-59
2021/05/30 00:14:48;;;;;;;3.40;2.20;;;;;;;9.51;63.28;101623.03;4904283;28;116768;-63
2021/05/30 00:17:15;;;;;;;2.13;1.70;;;;;;;9.54;60.91;101620.69;4903584;28;100044;-59
2021/05/30 00:19:42;;;;;;;3.28;1.67;;;;;;;9.60;60.36;101627.03;4921757;28;97780;-63
2021/05/30 00:22:08;;;;;;;3.10;2.00;;;;;;;9.58;61.05;101621.88;4921972;28;98225;-59
2021/05/30 00:24:34;;;;;;;2.50;1.67;;;;;;;9.56;61.15;101617.78;4884493;28;98304;-63
2021/05/30 00:27:00;;;;;;;2.97;1.88;;;;;;;9.45;60.11;101626.66;4884954;28;98345;-63
2021/05/30 00:29:26;;;;;;;2.97;1.58;;;;;;;9.49;59.28;101628.66;4901696;28;128322;-59
2021/05/30 00:31:53;;;;;;;3.90;1.80;;;;;;;9.45;59.53;101616.72;4901662;28;128381;-59
2021/05/30 00:34:19;;;;;;;2.17;1.48;;;;;;;9.43;59.31;101628.75;4902155;28;114819;-59
2021/05/30 00:36:45;;;;;;;2.95;1.42;;;;;;;9.46;59.02;101617.53;4909050;28;122921;-59
2021/05/30 00:39:11;;;;;;;5.78;1.60;;;;;;;9.51;59.19;101631.09;4921528;28;98440;-59
2021/05/30 00:41:37;;;;;;;2.75;1.60;;;;;;;9.44;59.11;101623.16;4921178;28;116984;-59
2021/05/30 00:44:19;;;;;;;2.92;1.42;;;;;;;9.59;59.31;101633.47;4920399;28;125394;-59
2021/05/30 00:46:45;;;;;;;3.20;1.67;;;;;;;9.58;58.72;101626.44;4905017;28;111356;-63
2021/05/30 00:49:11;;;;;;;2.85;1.50;;;;;;;9.59;59.14;101620.03;4921911;28;98556;-63
2021/05/30 00:51:37;;;;;;;4.13;1.83;;;;;;;9.58;59.08;101627.25;4920163;28;128027;-59
2021/05/30 00:54:03;;;;;;;3.17;1.60;;;;;;;9.64;58.90;101622.84;4921523;28;97876;-59
2021/05/30 00:56:29;;;;;;;3.03;1.60;;;;;;;9.62;58.86;101619.53;4903096;28;110249;-59
2021/05/30 00:58:55;;;;;;;3.28;1.63;;;;;;;9.50;58.62;101618.72;4919707;28;126759;-59
2021/05/30 01:01:21;;;;;;;3.10;1.67;;;;;;;9.48;59.33;101624.34;4920662;28;101211;-63
2021/05/30 01:03:47;;;;;;;2.45;1.60;;;;;;;9.53;59.23;101637.09;4918085;28;126450;-60
2021/05/30 01:06:13;;;;;;;3.00;1.80;;;;;;;9.58;59.49;101629.13;4900959;28;121421;-63
2021/05/30 01:08:39;;;;;;;2.53;1.60;;;;;;;9.41;59.50;101620.91;4901213;28;128111;-60
2021/05/30 01:11:06;;;;;;;3.10;1.90;;;;;;;9.34;60.43;101626.41;4902159;28;98607;-63
2021/05/30 01:13:32;;;;;;;2.15;1.58;;;;;;;9.17;61.50;101630.81;4864404;28;99332;-59
2021/05/30 01:15:58;;;;;;;3.53;1.60;;;;;;;9.00;62.60;101635.19;4895512;28;122827;-59
2021/05/30 01:18:25;;;;;;;2.17;1.65;;;;;;;9.01;62.80;101647.59;4901005;28;128526;-59
2021/05/30 01:20:54;;;;;;;2.63;1.70;;;;;;;8.82;63.32;101642.25;4884299;28;111016;-59
2021/05/30 01:23:20;;;;;;;3.03;1.73;;;;;;;8.75;63.16;101643.41;4900984;28;116047;-63
2021/05/30 01:25:47;;;;;;;3.08;2.00;;;;;;;8.74;63.61;101645.25;4883856;28;98114;-63
2021/05/30 01:28:16;;;;;;;3.60;1.85;;;;;;;8.55;64.05;101639.09;4883296;28;102548;-59
2021/05/30 01:30:44;;;;;;;3.03;1.95;;;;;;;8.70;64.28;101643.25;4901332;28;98364;-63
2021/05/30 01:33:10;;;;;;;3.05;1.80;;;;;;;8.69;64.42;101649.69;4916670;28;98919;-63
2021/05/30 01:35:36;;;;;;;4.40;2.13;;;;;;;8.62;64.97;101644.38;4919945;28;123666;-59
2021/05/30 01:38:02;;;;;;;3.67;1.73;;;;;;;8.60;64.29;101660.72;4920870;28;98634;-59
2021/05/30 01:40:28;;;;;;;2.55;1.80;;;;;;;8.36;65.08;101656.22;4899194;28;105041;-59
2021/05/30 01:42:55;;;;;;;4.15;2.00;;;;;;;8.46;64.78;101655.75;4900382;28;124535;-59
2021/05/30 01:45:21;;;;;;;5.70;2.15;;;;;;;8.23;65.47;101659.88;4902337;28;113237;-63
2021/05/30 01:47:48;;;;;;;4.05;2.40;;;;;;;8.18;66.14;101662.41;4901334;28;98302;-59
2021/05/30 01:50:21;;;;;;;3.08;1.98;;;;;;;7.96;66.82;101658.50;4900790;28;118511;-59
2021/05/30 01:52:48;;;;;;;3.55;2.55;;;;;;;8.04;67.09;101658.22;4900654;28;111376;-59
2021/05/30 01:58:10;;;;;;;3.90;2.60;;;;;;;7.77;68.01;101668.38;4887655;28;97779;-59
2021/05/30 02:00:36;;;;;;;2.83;2.53;;;;;;;7.52;69.18;101661.13;4894598;28;127235;-63
2021/05/30 02:03:02;;;;;;;4.35;2.50;;;;;;;7.48;69.16;101672.53;4885488;28;126992;-59
2021/05/30 02:05:29;;;;;;;3.03;2.40;;;;;;;7.46;69.31;101675.41;4920950;28;97820;-59
2021/05/30 02:07:55;;;;;;;4.32;2.80;;;;;;;7.34;69.19;101667.25;4885682;28;128229;-59
2021/05/30 02:10:22;;;;;;;4.30;2.53;;;;;;;7.33;70.31;101683.56;4919959;28;99094;-59
2021/05/30 02:12:51;;;;;;;5.28;2.97;;;;;;;7.20;70.19;101676.44;4919962;28;98368;-63
2021/05/30 02:15:18;;;;;;;4.25;3.00;;;;;;;7.22;70.42;101681.56;4920338;28;98255;-59
2021/05/30 02:17:44;;;;;;;3.78;2.85;;;;;;;7.31;69.79;101685.63;4902688;28;98413;-63
2021/05/30 02:20:11;;;;;;;4.82;2.72;;;;;;;7.16;69.88;101683.25;4920400;28;98776;-63
2021/05/30 02:22:37;;;;;;;5.03;2.65;;;;;;;7.28;70.11;101686.91;4919844;28;97925;-63
2021/05/30 02:25:05;;;;;;;3.75;2.53;;;;;;;7.47;69.79;101678.94;4920487;28;100118;-59
2021/05/30 02:27:31;;;;;;;4.93;2.95;;;;;;;7.32;69.98;101681.94;4916880;28;117166;-63
2021/05/30 02:29:57;;;;;;;4.63;2.75;;;;;;;7.27;69.79;101685.25;4886095;28;122265;-63
2021/05/30 02:32:23;;;;;;;3.70;2.88;;;;;;;7.24;70.21;101683.00;4901396;28;104255;-59
2021/05/30 02:34:49;;;;;;;4.28;2.88;;;;;;;7.28;70.27;101686.09;4884601;28;121182;-59
2021/05/30 02:37:17;;;;;;;4.25;2.95;;;;;;;7.09;70.07;101685.97;4885423;28;127709;-59
2021/05/30 02:39:43;;;;;;;4.88;2.83;;;;;;;7.25;70.47;101698.06;4919625;28;98358;-59
2021/05/30 02:42:09;;;;;;;5.32;2.90;;;;;;;7.33;69.64;101694.28;4919172;28;110730;-59
2021/05/30 02:44:36;;;;;;;4.15;3.00;;;;;;;7.24;70.36;101704.47;4919001;28;109119;-63
2021/05/30 02:47:02;;;;;;;3.65;2.63;;;;;;;7.01;70.61;101707.66;4920418;28;98455;-63
2021/05/30 02:49:29;;;;;;;3.72;2.63;;;;;;;7.07;70.07;101711.34;4918307;28;98673;-63
2021/05/30 02:51:56;;;;;;;4.25;3.08;;;;;;;7.20;69.57;101710.47;4900379;28;98254;-63
2021/05/30 02:54:22;;;;;;;4.20;2.65;;;;;;;6.98;70.47;101708.09;4916337;28;100614;-63
2021/05/30 02:56:48;;;;;;;3.42;2.58;;;;;;;6.91;70.66;101719.88;4917798;28;128339;-59
2021/05/30 02:59:14;;;;;;;4.93;2.95;;;;;;;7.20;69.85;101718.53;4918653;28;128115;-63
2021/05/30 03:01:40;;;;;;;4.93;2.97;;;;;;;6.97;70.76;101722.53;4919461;28;105889;-63
2021/05/30 03:04:06;;;;;;;3.83;2.85;;;;;;;6.80;70.85;101719.53;4918756;28;122819;-63
2021/05/30 03:06:32;;;;;;;4.85;3.00;;;;;;;6.91;70.82;101714.50;4919258;28;126655;-59
2021/05/30 03:08:59;;;;;;;4.15;2.92;;;;;;;6.92;70.04;101711.63;4920336;28;98765;-59
2021/05/30 03:11:25;;;;;;;4.38;3.28;;;;;;;6.88;71.04;101716.59;4903310;28;98010;-63
2021/05/30 03:13:51;;;;;;;4.50;3.10;;;;;;;6.95;70.71;101715.72;4882281;28;107627;-63
2021/05/30 03:16:17;;;;;;;4.30;3.10;;;;;;;6.87;70.78;101725.66;4899326;28;117435;-63
2021/05/30 03:18:44;;;;;;;4.43;2.90;;;;;;;6.94;69.82;101717.59;4899428;28;120687;-59
2021/05/30 03:21:10;;;;;;;4.43;3.17;;;;;;;7.06;70.19;101715.88;4908991;28;98850;-64
2021/05/30 03:23:36;;;;;;;3.40;3.10;;;;;;;6.84;70.76;101718.06;4918575;28;123291;-59
2021/05/30 03:26:02;;;;;;;5.60;3.45;;;;;;;6.81;70.17;101725.69;4919123;28;125775;-59
2021/05/30 03:28:28;;;;;;;4.10;3.30;;;;;;;6.63;71.05;101712.97;4919122;28;107197;-63
2021/05/30 03:30:54;;;;;;;6.10;3.00;;;;;;;6.63;71.02;101719.16;4884194;28;127423;-63
2021/05/30 03:33:20;;;;;;;4.95;2.88;;;;;;;6.61;71.45;101720.41;4919185;28;101568;-63
2021/05/30 03:35:47;;;;;;;4.93;2.97;;;;;;;6.66;71.22;101719.78;4917926;28;120541;-59
2021/05/30 03:38:14;;;;;;;4.18;3.20;;;;;;;6.76;71.28;101709.41;4902716;28;99251;-59
2021/05/30 03:40:48;;;;;;;4.13;3.00;;;;;;;6.59;71.67;101709.06;4922491;28;98232;-63
2021/05/30 03:43:15;;;;;;;5.82;3.40;;;;;;;6.82;71.18;101712.06;4915925;28;98003;-63
2021/05/30 03:45:41;;;;;;;4.50;2.80;;;;;;;6.68;71.58;101715.84;4904350;28;109167;-59
2021/05/30 03:48:07;;;;;;;5.10;3.35;;;;;;;6.80;71.10;101721.38;4901543;28;98521;-59
2021/05/30 03:50:34;;;;;;;3.95;2.97;;;;;;;6.87;71.11;101711.44;4902173;28;98668;-59
2021/05/30 03:53:00;;;;;;;5.00;2.97;;;;;;;6.97;70.21;101714.50;4902905;28;97907;-63
2021/05/30 03:55:26;;;;;;;6.03;3.00;;;;;;;6.84;71.18;101720.75;4903176;28;98578;-63
2021/05/30 03:57:53;;;;;;;5.72;3.17;;;;;;;6.86;71.26;101718.66;4902554;28;127287;-59
2021/05/30 04:00:20;;;;;;;4.72;3.00;;;;;;;6.98;70.55;101718.81;4903111;28;98122;-63
2021/05/30 04:02:46;;;;;;;4.20;2.92;;;;;;;7.07;70.34;101730.13;4902223;28;110493;-63
2021/05/30 04:05:13;;;;;;;3.80;2.92;;;;;;;6.98;70.84;101720.69;4903918;28;98204;-59
2021/05/30 04:07:40;;;;;;;4.88;3.17;;;;;;;7.16;70.60;101709.25;4885039;28;98557;-59
2021/05/30 04:10:09;;;;;;;6.07;3.00;;;;;;;7.25;70.13;101710.66;4903145;28;98368;-59
2021/05/30 04:12:36;;;;;;;3.47;2.78;;;;;;;7.39;69.44;101712.22;4902445;28;97805;-62
2021/05/30 04:15:03;;;;;;;4.88;3.13;;;;;;;7.37;69.74;101714.28;4902946;28;105875;-59
2021/05/30 04:17:29;;;;;;;6.43;3.10;;;;;;;7.26;70.18;101704.22;4919974;28;119898;-59
2021/05/30 04:19:55;;;;;;;5.45;3.08;;;;;;;7.40;70.06;101718.41;4920702;28;127770;-63
2021/05/30 04:22:21;;;;;;;3.85;2.85;;;;;;;7.51;69.75;101715.03;4902941;28;123512;-59
2021/05/30 04:24:47;;;;;;;4.65;2.90;;;;;;;7.61;69.65;101707.31;4922335;28;109177;-59
2021/05/30 04:27:13;;;;;;;4.72;2.92;;;;;;;7.78;69.17;101711.13;4921105;28;125906;-59
2021/05/30 04:29:39;;;;;;;4.40;3.15;;;;;;;7.77;69.15;101711.31;4921586;28;126570;-59
2021/05/30 04:32:06;;;;;;;4.65;2.95;;;;;;;8.05;69.16;101708.19;4922094;28;101328;-63
2021/05/30 04:34:32;;;;;;;4.30;2.78;;;;;;;8.05;68.49;101711.69;4921195;28;111510;-60
2021/05/30 04:36:58;;;;;;;4.72;2.70;;;;;;;8.20;68.39;101714.03;4886785;28;127290;-59
2021/05/30 04:39:26;;;;;;;3.67;2.80;;;;;;;8.24;67.86;101709.88;4920584;28;116363;-59
2021/05/30 04:41:52;;;;;;;4.93;3.00;;;;;;;8.40;68.07;101705.00;4904115;28;98067;-60
2021/05/30 04:44:18;;;;;;;3.85;2.60;;;;;;;8.63;67.30;101712.41;4910036;28;114242;-63
2021/05/30 04:46:44;;;;;;;3.88;2.70;;;;;;;8.72;66.89;101711.88;4902477;28;98819;-63
2021/05/30 04:49:10;;;;;;;5.45;2.67;;;;;;;8.90;66.07;101711.03;4900722;28;127205;-63
2021/05/30 04:51:36;;;;;;;4.20;2.60;;;;;;;8.97;65.40;101716.34;4900606;28;122507;-63
2021/05/30 04:54:02;;;;;;;3.67;2.65;;;;;;;9.10;66.03;101713.47;4883030;28;127574;-60
2021/05/30 04:56:28;;;;;;;4.10;2.80;;;;;;;9.15;64.84;101716.28;4883298;28;127892;-60
2021/05/30 04:58:54;;;;;;;3.30;2.42;;;;;;;9.30;64.88;101718.59;4883695;28;126893;-63
2021/05/30 05:01:20;;;;;;;4.63;2.33;;;;;;;9.24;65.09;101714.13;4884400;28;97904;-59
2021/05/30 05:03:46;;;;;;;5.57;3.00;;;;;;;9.48;63.98;101712.34;4902098;28;102758;-63
2021/05/30 05:06:12;;;;;;;4.45;2.45;;;;;;;9.53;63.74;101717.84;4902170;28;99055;-63
2021/05/30 05:08:38;;;;;;;4.22;2.58;;;;;;;9.87;62.79;101705.50;4901281;28;127560;-63
2021/05/30 05:11:08;;;;;;;3.17;2.70;;;;;;;9.94;63.39;101711.63;4918134;28;113796;-63
2021/05/30 05:13:34;;;;;;;4.93;2.55;;;;;;;9.97;62.78;101705.75;4921071;28;97834;-59
2021/05/30 05:16:00;;;;;;;4.15;2.40;;;;;;;10.08;62.25;101712.19;4921078;28;98089;-60
2021/05/30 05:18:28;;;;;;;4.68;2.60;;;;;;;10.52;61.18;101710.78;4920714;28;126675;-59
2021/05/30 05:20:54;;;;;;;3.65;2.42;;;;;;;10.57;60.81;101707.38;4871063;28;97965;-60
2021/05/30 05:23:23;;;;;;;4.10;2.70;;;;;;;10.76;60.30;101706.16;4918752;28;127846;-60
2021/05/30 05:25:57;;;;;;;4.75;3.00;;;;;;;11.09;59.16;101701.97;4902908;28;98338;-59
2021/05/30 05:28:23;;;;;;;3.22;2.53;;;;;;;11.28;58.40;101697.22;4921376;28;97777;-63
2021/05/30 05:30:50;;;;;;;5.32;2.42;;;;;;;11.26;58.58;101699.31;4921205;28;113583;-60
2021/05/30 05:33:16;;;;;;;3.25;2.47;;;;;;;11.28;59.18;101700.72;4919670;28;116443;-63
2021/05/30 05:35:43;;;;;;;3.78;2.75;;;;;;;11.36;57.86;101702.22;4921037;28;117639;-60
2021/05/30 05:38:09;;;;;;;3.90;2.60;;;;;;;11.80;57.31;101699.72;4919420;28;98666;-60
2021/05/30 05:40:35;;;;;;;4.72;2.55;;;;;;;11.91;57.44;101698.84;4886199;28;109657;-60
2021/05/30 05:43:01;;;;;;;4.13;2.75;;;;;;;11.92;56.84;101705.88;4902191;28;98842;-63
2021/05/30 05:45:28;;;;;;;3.72;2.28;;;;;;;11.96;57.54;101706.22;4921152;28;98664;-63
2021/05/30 05:47:54;;;;;;;3.95;2.55;;;;;;;11.98;57.54;101707.56;4921024;28;104261;-64
2021/05/30 05:50:22;;;;;;;4.10;2.40;;;;;;;12.15;56.41;101709.47;4920638;28;97967;-64
2021/05/30 05:52:49;;;;;;;4.68;2.70;;;;;;;12.33;56.44;101705.66;4920015;28;109982;-63
2021/05/30 05:55:15;;;;;;;3.00;2.70;;;;;;;14.25;50.71;101702.47;4920393;28;117527;-60
2021/05/30 05:57:42;;;;;;;3.10;2.17;;;;;;;15.17;47.35;101697.50;4921067;28;97919;-61
2021/05/30 06:00:16;;;;;;;3.85;2.30;;;;;;;14.41;49.68;101704.19;4921381;28;98090;-64
2021/05/30 06:02:46;;;;;;;3.53;2.60;;;;;;;16.13;45.87;101698.63;4919629;28;99138;-60
2021/05/30 06:05:17;;;;;;;2.90;2.40;;;;;;;17.27;43.41;101696.00;4920477;28;98880;-61
2021/05/30 06:07:46;;;;;;;3.78;2.90;;;;;;;17.98;41.45;101691.91;4911926;28;97979;-61
2021/05/30 06:10:14;;;;;;;3.45;3.05;;;;;;;19.23;38.29;101683.59;4901824;28;97752;-65
2021/05/30 06:12:40;;;;;;;4.45;3.58;;;;;;;19.52;37.54;101685.31;4900818;28;99203;-61
2021/05/30 06:15:07;;;;;;;3.60;3.08;;;;;;;20.77;35.08;101685.22;4900602;28;102573;-64
2021/05/30 06:17:34;;;;;;;3.88;3.00;;;;;;;22.05;32.62;101693.16;4901977;28;99076;-64
2021/05/30 06:20:00;;;;;;;4.53;3.00;;;;;;;23.94;28.93;101703.97;4917353;28;97978;-61
2021/05/30 06:22:27;;;;;;;3.45;2.72;;;;;;;23.92;29.16;101709.78;4916267;28;128286;-61
2021/05/30 06:24:54;;;;;;;3.10;2.10;;;;;;;23.90;29.39;101703.00;4917097;28;98743;-61
2021/05/30 06:27:20;;;;;;;2.58;2.30;;;;;;;24.60;27.90;101718.16;4916708;28;127785;-62
2021/05/30 06:29:47;;;;;;;2.80;2.00;;;;;;;25.80;25.96;101720.34;4917073;28;98130;-61
2021/05/30 06:32:13;;;;;;;8.02;2.03;;;;;;;24.93;27.18;101723.78;4916466;28;128108;-61
2021/05/30 06:34:39;;;;;;;3.45;2.25;;;;;;;25.26;26.37;101714.78;4917504;28;98143;-61
2021/05/30 06:37:05;;;;;;;2.85;1.88;;;;;;;25.86;25.71;101712.63;4914522;28;113730;-61
2021/05/30 06:39:31;;;;;;;2.88;2.22;;;;;;;26.17;24.99;101714.88;4911238;28;98088;-64
2021/05/30 06:41:57;;;;;;;2.88;1.77;;;;;;;23.97;28.09;101728.06;4911358;28;128499;-64
2021/05/30 06:44:23;;;;;;;3.00;2.00;;;;;;;20.93;32.29;101736.94;4915936;28;126112;-64
2021/05/30 06:46:49;;;;;;;3.60;1.60;;;;;;;21.14;32.96;101729.88;4915035;28;99473;-61
2021/05/30 06:49:15;;;;;;;3.40;1.60;;;;;;;21.39;32.51;101720.31;4915979;28;123713;-61
2021/05/30 06:51:41;;;;;;;3.40;1.63;;;;;;;21.02;33.09;101724.94;4914377;28;112912;-65
2021/05/30 06:54:09;;;;;;;3.03;1.60;;;;;;;21.03;33.59;101717.56;4906697;28;98426;-61
2021/05/30 06:56:35;;;;;;;2.97;1.58;;;;;;;20.54;34.05;101719.13;4915944;28;97771;-64
2021/05/30 06:59:01;;;;;;;2.33;1.40;;;;;;;20.95;32.88;101713.63;4912646;28;106409;-65
2021/05/30 07:01:27;;;;;;;3.50;1.60;;;;;;;21.44;31.72;101708.41;4896969;28;128227;-61
2021/05/30 07:03:53;;;;;;;2.70;1.35;;;;;;;21.22;31.40;101711.91;4897910;28;127188;-61
2021/05/30 07:06:19;;;;;;;3.55;1.30;;;;;;;20.75;32.07;101714.03;4915875;28;97782;-61
2021/05/30 07:08:46;;;;;;;3.20;1.52;;;;;;;20.38;32.67;101713.09;4915600;28;97966;-61
2021/05/30 07:11:12;;;;;;;2.83;1.25;;;;;;;21.03;32.11;101704.66;4897972;28;101961;-62
2021/05/30 07:13:39;;;;;;;2.20;1.27;;;;;;;21.15;31.00;101695.91;4912861;28;99304;-61
2021/05/30 07:16:05;;;;;;;3.72;1.10;;;;;;;20.91;31.98;101700.84;4914867;28;98352;-64
2021/05/30 07:18:32;;;;;;;4.72;1.45;;;;;;;21.12;31.56;101696.50;4917054;28;97887;-61
2021/05/30 07:20:58;;;;;;;5.18;1.30;;;;;;;20.91;31.47;101709.06;4883577;28;98166;-65
2021/05/30 07:23:24;;;;;;;2.75;1.02;;;;;;;21.31;31.22;101701.84;4892568;28;110864;-64
2021/05/30 07:25:51;;;;;;;9.95;1.80;;;;;;;21.35;31.26;101697.38;4915082;28;120778;-67
2021/05/30 07:28:17;;;;;;;2.30;1.20;;;;;;;20.53;32.21;101706.53;4907921;28;97809;-65
2021/05/30 07:30:43;;;;;;;2.28;1.17;;;;;;;19.80;33.70;101713.59;4916225;28;98710;-62
2021/05/30 07:33:09;;;;;;;2.65;1.38;;;;;;;21.58;30.80;101705.63;4915483;28;128229;-62
2021/05/30 07:35:36;;;;;;;2.55;1.23;;;;;;;20.78;31.44;101710.69;4897449;28;97990;-62
2021/05/30 07:38:02;;;;;;;2.00;1.08;;;;;;;21.35;31.30;101702.88;4906833;28;114218;-65
2021/05/30 07:40:29;;;;;;;1.80;1.05;;;;;;;21.13;31.48;101706.34;4915319;28;98442;-62
2021/05/30 07:42:55;;;;;;;1.98;0.95;;;;;;;22.45;29.46;101705.00;4898502;28;98537;-65
2021/05/30 07:45:21;;;;;;;2.20;1.20;;;;;;;20.43;31.43;101713.00;4915936;28;98190;-62
2021/05/30 07:47:48;;;;;;;1.55;1.00;;;;;;;21.23;29.96;101702.59;4897559;28;110511;-62
2021/05/30 07:50:14;;;;;;;3.45;1.10;;;;;;;21.92;29.41;101705.03;4916016;28;97864;-62
2021/05/30 07:52:40;;;;;;;2.45;1.30;;;;;;;23.11;27.59;101702.25;4907220;28;118167;-65
2021/05/30 07:55:07;;;;;;;2.90;1.10;;;;;;;23.02;28.31;101707.72;4914869;28;107307;-63
2021/05/30 07:57:33;;;;;;;2.25;1.20;;;;;;;23.55;27.46;101700.28;4896094;28;98298;-63
2021/05/30 08:00:00;;;;;;;1.73;1.23;;;;;;;24.33;26.09;101700.09;4913732;28;128260;-65
2021/05/30 08:02:26;;;;;;;2.10;0.93;;;;;;;24.74;26.38;101696.66;4913333;28;98991;-66
2021/05/30 08:04:54;;;;;;;3.13;1.30;;;;;;;25.61;24.23;101703.44;4921664;28;127406;-63
2021/05/30 08:07:23;;;;;;;2.55;0.93;;;;;;;22.38;27.31;101712.88;4902510;28;98245;-62
2021/05/30 08:09:49;;;;;;;3.03;1.20;;;;;;;21.08;29.78;101711.94;4914628;28;98895;-62
2021/05/30 08:12:16;;;;;;;2.92;0.95;;;;;;;20.44;31.75;101717.38;4916145;28;98859;-65
2021/05/30 08:14:42;;;;;;;4.18;1.33;;;;;;;20.66;31.06;101711.19;4919736;28;111147;-62
2021/05/30 08:17:08;;;;;;;5.78;1.27;;;;;;;23.21;27.53;101701.91;4913798;28;98180;-65
2021/05/30 08:19:35;;;;;;;2.40;1.38;;;;;;;24.09;26.13;101699.84;4914630;28;107004;-65
2021/05/30 08:22:01;;;;;;;2.30;1.27;;;;;;;23.33;27.01;101695.75;4912467;28;98671;-62
2021/05/30 08:24:27;;;;;;;2.22;1.10;;;;;;;21.19;31.01;101702.38;4914903;28;98144;-65
2021/05/30 08:26:54;;;;;;;2.55;1.30;;;;;;;23.11;28.52;101696.75;4917577;28;97994;-62
2021/05/30 08:29:24;;;;;;;3.95;1.20;;;;;;;23.95;26.42;101686.31;4894632;28;101140;-62
2021/05/30 08:31:53;;;;;;;3.45;1.05;;;;;;;23.25;28.44;101702.06;4914995;28;98506;-64
2021/05/30 08:34:19;;;;;;;2.50;1.30;;;;;;;24.09;26.13;101697.94;4918693;28;98892;-62
2021/05/30 08:36:46;;;;;;;3.72;1.23;;;;;;;25.45;24.17;101689.47;4911758;28;119645;-64
2021/05/30 08:39:12;;;;;;;2.20;1.10;;;;;;;23.62;26.36;101705.28;4911282;28;99125;-62
2021/05/30 08:41:40;;;;;;;2.22;1.10;;;;;;;23.77;26.47;101704.81;4914077;28;127673;-62
2021/05/30 08:44:06;;;;;;;1.42;1.23;;;;;;;25.56;24.09;101698.16;4918771;28;98238;-64
2021/05/30 08:46:33;;;;;;;2.50;1.10;;;;;;;24.82;24.93;101691.41;4911164;28;97946;-64
2021/05/30 08:48:59;;;;;;;2.05;1.10;;;;;;;25.14;24.79;101699.00;4913188;28;98527;-64
2021/05/30 08:51:25;;;;;;;2.10;0.95;;;;;;;25.60;24.78;101694.38;4909710;28;98646;-64
2021/05/30 08:53:51;;;;;;;3.10;1.00;;;;;;;27.36;21.99;101696.13;4914872;28;128283;-65
2021/05/30 08:56:18;;;;;;;3.55;1.20;;;;;;;27.71;21.87;101695.50;4916325;28;121620;-64
2021/05/30 08:58:46;;;;;;;1.38;0.90;;;;;;;27.50;22.08;101690.16;4918664;28;99162;-65
2021/05/30 09:01:17;;;;;;;2.08;0.98;;;;;;;27.53;21.80;101697.78;4915420;28;101090;-65
2021/05/30 09:04:07;;;;;;;1.45;0.88;;;;;;;26.98;23.46;101695.75;4911239;28;98056;-62
2021/05/30 09:06:34;;;;;;;2.60;0.93;;;;;;;27.49;22.63;101696.06;4914882;28;97796;-62
2021/05/30 09:09:01;;;;;;;2.15;1.00;;;;;;;28.32;22.53;101695.09;4911365;28;97956;-64
2021/05/30 09:11:39;;;;;;;1.65;0.80;;;;;;;26.82;22.61;101706.75;4915948;28;98240;-65
2021/05/30 09:14:08;;;;;;;2.15;1.00;;;;;;;26.79;23.16;101697.16;4917094;28;98566;-64
2021/05/30 09:17:01;;;;;;;2.20;1.10;;;;;;;25.64;25.65;101695.31;4918747;28;97930;-62
2021/05/30 09:19:59;;;;;;;1.88;0.80;;;;;;;22.85;29.26;101704.91;4916384;28;98839;-65
2021/05/30 09:22:36;;;;;;;2.45;0.98;;;;;;;22.10;30.05;101704.00;4914092;28;99088;-65
2021/05/30 09:25:17;;;;;;;2.92;1.15;;;;;;;25.65;26.24;101682.31;4916863;28;98618;-64
2021/05/30 09:27:59;;;;;;;2.08;1.02;;;;;;;25.73;25.11;101686.13;4910933;28;98064;-62
2021/05/30 09:30:30;;;;;;;;;;;;;;;27.44;23.85;101688.81;4917265;28;98465;-62
2021/05/30 09:32:57;;;;;;;2.15;0.70;;;;;;;24.20;27.35;101703.88;4911249;28;99027;-65
2021/05/30 09:35:51;;;;;;;1.58;0.80;;;;;;;23.12;28.23;101703.84;4917092;28;98463;-62
2021/05/30 09:38:32;;;;;;;4.35;0.90;;;;;;;22.43;29.92;101703.69;4908790;28;98001;-62
2021/05/30 09:41:09;;;;;;;2.63;0.90;;;;;;;24.51;27.28;101695.31;4911999;28;98577;-65
2021/05/30 09:43:50;;;;;;;3.05;1.23;;;;;;;25.01;27.67;101699.25;4911047;28;98355;-62
2021/05/30 09:46:17;;;;;;;2.33;0.77;;;;;;;23.28;29.13;101713.25;4893874;28;98112;-61
2021/05/30 09:48:49;;;;;;;2.17;0.80;;;;;;;22.89;29.40;101708.66;4915591;28;108938;-62
2021/05/30 09:51:38;;;;;;;3.28;0.80;;;;;;;24.72;26.15;101701.72;4916317;28;99164;-65
2021/05/30 09:54:11;;;;;;;2.55;1.00;;;;;;;21.99;30.74;101716.38;4914733;28;98541;-61
2021/05/30 09:56:52;;;;;;;1.83;0.88;;;;;;;22.77;31.11;101711.22;4896517;28;98183;-61
2021/05/30 09:59:20;;;;;;;1.90;1.13;;;;;;;23.04;31.13;101707.41;4915682;28;98058;-64
2021/05/30 10:01:58;;;;;;;1.83;1.10;;;;;;;24.87;28.43;101710.50;4916306;28;98222;-64
2021/05/30 10:04:32;;;;;;;2.28;1.20;;;;;;;24.49;28.47;101705.88;4909340;28;98277;-64
2021/05/30 10:06:59;;;;;;;1.73;0.98;;;;;;;27.02;25.89;101700.22;4909983;28;99140;-62
2021/05/30 10:09:26;;;;;;;1.88;1.00;;;;;;;26.13;25.51;101703.75;4917770;28;98137;-65
2021/05/30 10:11:52;;;;;;;3.00;1.20;;;;;;;25.28;26.49;101708.97;4913793;28;98296;-65
2021/05/30 10:14:18;;;;;;;1.52;0.90;;;;;;;26.76;25.11;101702.59;4916301;28;111531;-63
2021/05/30 10:16:45;;;;;;;2.50;0.90;;;;;;;26.63;25.89;101696.28;4916022;28;127917;-64
2021/05/30 10:19:28;;;;;;;1.80;0.73;;;;;;;23.30;30.00;101721.16;4914333;28;111554;-62
2021/05/30 10:21:57;;;;;;;3.78;1.02;;;;;;;24.31;28.83;101709.81;4894971;28;112266;-64
2021/05/30 10:24:23;;;;;;;1.55;0.80;;;;;;;20.91;33.90;101720.81;4899163;28;99008;-61
2021/05/30 10:27:16;;;;;;;1.70;0.90;;;;;;;20.87;34.42;101719.81;4875416;28;127664;-64
2021/05/30 10:30:13;;;;;;;2.17;0.75;;;;;;;19.62;36.52;101728.94;4912764;28;98419;-61
2021/05/30 10:32:45;;;;;;;1.10;0.90;;;;;;;19.60;37.53;101731.94;4907022;28;99158;-61
2021/05/30 10:35:21;;;;;;;1.67;0.93;;;;;;;19.31;37.73;101725.84;4896695;28;98698;-61
2021/05/30 10:37:51;;;;;;;2.03;1.05;;;;;;;18.51;39.40;101727.38;4895429;28;98223;-63
2021/05/30 10:40:23;;;;;;;1.42;1.00;;;;;;;19.49;36.68;101726.91;4915724;28;106816;-61
2021/05/30 10:43:11;;;;;;;1.80;0.82;;;;;;;18.81;39.27;101731.69;4912299;28;98619;-64
2021/05/30 10:45:43;;;;;;;2.30;1.10;;;;;;;22.03;32.38;101712.69;4912848;28;99058;-61
2021/05/30 10:48:13;;;;;;;3.45;1.27;;;;;;;20.27;35.16;101717.94;4916440;28;98254;-61
2021/05/30 10:51:02;;;;;;;2.15;0.98;;;;;;;18.10;39.62;101724.25;4916811;28;98415;-63
2021/05/30 10:53:43;;;;;;;3.20;1.02;;;;;;;22.00;32.67;101705.06;4917753;28;100399;-63
2021/05/30 10:56:37;;;;;;;1.85;1.27;;;;;;;24.04;29.57;101700.84;4882062;28;100041;-64
2021/05/30 10:59:06;;;;;;;1.50;0.82;;;;;;;24.42;28.10;101700.09;4916248;28;98258;-62
2021/05/30 11:01:35;;;;;;;2.88;1.30;;;;;;;23.52;29.57;101709.19;4915122;28;100276;-64
2021/05/30 11:04:29;;;;;;;1.98;1.30;;;;;;;24.92;27.79;101705.63;4911400;28;99163;-64
2021/05/30 11:07:00;;;;;;;1.55;0.90;;;;;;;25.25;27.30;101695.84;4910610;28;98965;-64
2021/05/30 11:09:57;;;;;;;1.23;0.82;;;;;;;25.84;27.32;101701.94;4914510;28;98414;-62
2021/05/30 11:12:48;;;;;;;1.65;0.73;;;;;;;25.34;26.96;101707.59;4912691;28;97817;-64
2021/05/30 11:15:18;;;;;;;1.52;0.80;;;;;;;21.59;31.92;101715.47;4913928;28;98880;-64
2021/05/30 11:17:44;;;;;;;2.30;0.95;;;;;;;23.85;29.55;101706.72;4908563;28;99007;-64
2021/05/30 11:20:23;;;;;;;1.83;0.77;;;;;;;24.12;28.81;101704.72;4916490;28;98422;-62
2021/05/30 11:22:56;;;;;;;3.13;0.75;;;;;;;25.50;27.28;101700.31;4915862;28;97829;-62
2021/05/30 11:25:43;;;;;;;1.38;0.68;;;;;;;25.42;26.12;101693.72;4914953;28;98579;-61
2021/05/30 11:28:20;;;;;;;1.17;0.60;;;;;;;24.68;27.77;101695.25;4915719;28;98281;-64
2021/05/30 11:30:51;;;;;;;1.70;0.70;;;;;;;22.33;31.37;101710.28;4908862;28;98696;-63
2021/05/30 11:33:23;;;;;;;1.15;0.60;;;;;;;23.67;30.26;101697.72;4916547;28;97870;-63